createdAt,value
2022-09-01T00:01:49.847Z,25.60
2022-09-01T00:04:20.519Z,25.60
2022-09-01T00:06:49.151Z,25.70
2022-09-01T00:09:18.778Z,25.80
2022-09-01T00:11:50.533Z,25.80
2022-09-01T00:14:29.450Z,25.80
2022-09-01T00:17:00.093Z,25.80
2022-09-01T00:19:28.162Z,25.80
2022-09-01T00:21:56.053Z,25.80
2022-09-01T00:24:27.229Z,25.80
2022-09-01T00:26:55.647Z,25.90
2022-09-01T00:29:25.620Z,25.90
2022-09-01T00:31:53.380Z,25.90
2022-09-01T00:34:22.463Z,25.90
2022-09-01T00:36:51.462Z,25.90
2022-09-01T00:39:19.386Z,26.00
2022-09-01T00:41:49.110Z,26.00
2022-09-01T00:44:19.413Z,26.10
2022-09-01T00:46:54.935Z,26.20
2022-09-01T00:49:37.040Z,26.20
2022-09-01T00:52:10.611Z,26.30
2022-09-01T00:54:41.201Z,26.40
2022-09-01T00:57:10.806Z,26.40
2022-09-01T00:59:41.071Z,26.50
2022-09-01T01:02:09.017Z,26.60
2022-09-01T01:04:39.941Z,26.60
2022-09-01T01:07:10.533Z,26.70
2022-09-01T01:09:42.855Z,26.70
2022-09-01T01:12:18.858Z,26.90
2022-09-01T01:14:50.830Z,26.90
2022-09-01T01:17:22.149Z,27.00
2022-09-01T01:20:07.299Z,27.00
2022-09-01T01:23:04.778Z,27.10
2022-09-01T01:25:50.830Z,27.20
2022-09-01T01:28:21.163Z,27.30
2022-09-01T01:30:53.782Z,27.30
2022-09-01T01:33:23.284Z,27.50
2022-09-01T01:35:52.152Z,27.50
2022-09-01T01:38:23.218Z,27.70
2022-09-01T01:40:52.278Z,27.80
2022-09-01T01:43:23.522Z,27.80
2022-09-01T01:45:54.008Z,27.90
2022-09-01T01:48:24.775Z,28.00
2022-09-01T01:50:53.372Z,28.10
2022-09-01T01:53:22.421Z,28.10
2022-09-01T01:55:51.015Z,28.10
2022-09-01T01:58:20.621Z,28.20
2022-09-01T02:00:50.136Z,28.30
2022-09-01T02:03:20.838Z,28.30
2022-09-01T02:05:49.993Z,28.40
2022-09-01T02:08:28.493Z,28.50
2022-09-01T02:11:00.689Z,28.60
2022-09-01T02:13:31.539Z,28.70
2022-09-01T02:16:04.909Z,28.70
2022-09-01T02:18:38.352Z,28.80
2022-09-01T02:21:13.891Z,28.80
2022-09-01T02:23:44.626Z,28.90
2022-09-01T02:26:17.583Z,28.90
2022-09-01T02:28:50.942Z,29.00
2022-09-01T02:31:23.568Z,29.00
2022-09-01T02:33:52.607Z,29.00
2022-09-01T02:36:23.471Z,29.10
2022-09-01T02:38:56.639Z,29.20
2022-09-01T02:41:30.130Z,29.20
2022-09-01T02:43:58.212Z,29.20
2022-09-01T02:46:26.573Z,29.20
2022-09-01T02:48:55.925Z,29.30
2022-09-01T02:51:29.325Z,29.30
2022-09-01T02:54:00.032Z,29.30
2022-09-01T02:56:27.922Z,29.40
2022-09-01T02:59:03.178Z,29.50
2022-09-01T03:01:34.562Z,29.60
2022-09-01T03:04:07.349Z,29.60
2022-09-01T03:06:38.240Z,29.70
2022-09-01T03:09:07.709Z,29.80
2022-09-01T03:11:38.279Z,29.80
2022-09-01T03:14:11.731Z,29.90
2022-09-01T03:16:42.353Z,30.00
2022-09-01T03:19:12.493Z,30.10
2022-09-01T03:21:41.677Z,30.20
2022-09-01T03:24:10.771Z,30.40
2022-09-01T03:26:38.737Z,30.40
2022-09-01T03:29:07.408Z,30.40
2022-09-01T03:31:37.817Z,30.50
2022-09-01T03:34:06.478Z,30.60
2022-09-01T03:36:35.977Z,30.60
2022-09-01T03:39:03.949Z,30.70
2022-09-01T03:41:32.020Z,30.80
2022-09-01T03:44:01.211Z,30.80
2022-09-01T03:46:35.845Z,30.90
2022-09-01T03:49:10.953Z,31.00
2022-09-01T03:51:40.772Z,31.00
2022-09-01T03:54:08.725Z,31.10
2022-09-01T03:56:42.358Z,31.10
2022-09-01T03:59:17.516Z,31.10
2022-09-01T04:01:45.937Z,31.10
2022-09-01T04:04:17.415Z,31.20
2022-09-01T04:06:46.961Z,31.30
2022-09-01T04:09:14.817Z,31.40
2022-09-01T04:11:47.637Z,31.50
2022-09-01T04:14:15.821Z,31.50
2022-09-01T04:16:56.692Z,31.60
2022-09-01T04:19:31.618Z,31.60
2022-09-01T04:22:01.920Z,31.60
2022-09-01T04:24:32.316Z,31.60
2022-09-01T04:27:03.362Z,31.70
2022-09-01T04:29:33.390Z,31.70
2022-09-01T04:32:03.050Z,31.60
2022-09-01T04:34:39.460Z,31.70
2022-09-01T04:37:18.079Z,31.80
2022-09-01T04:39:56.299Z,31.80
2022-09-01T04:42:29.659Z,31.80
2022-09-01T04:45:10.019Z,31.60
2022-09-01T04:47:42.503Z,31.60
2022-09-01T04:50:15.158Z,31.60
2022-09-01T04:52:43.445Z,31.50
2022-09-01T04:55:18.399Z,31.60
2022-09-01T04:57:47.827Z,31.60
2022-09-01T05:00:22.915Z,31.70
2022-09-01T05:02:55.373Z,31.70
2022-09-01T05:05:24.608Z,31.70
2022-09-01T05:07:54.474Z,31.70
2022-09-01T05:10:23.034Z,31.60
2022-09-01T05:12:53.075Z,31.60
2022-09-01T05:15:22.326Z,31.50
2022-09-01T05:17:50.840Z,31.50
2022-09-01T05:20:21.127Z,31.50
2022-09-01T05:22:52.421Z,31.50
2022-09-01T05:25:22.648Z,31.50
2022-09-01T05:27:54.646Z,31.50
2022-09-01T05:30:22.696Z,31.50
2022-09-01T05:32:56.691Z,31.50
2022-09-01T05:35:37.252Z,31.60
2022-09-01T05:38:07.050Z,31.60
2022-09-01T05:40:43.042Z,31.60
2022-09-01T05:43:13.422Z,31.70
2022-09-01T05:46:05.204Z,31.80
2022-09-01T05:48:40.148Z,31.90
2022-09-01T05:51:22.245Z,32.00
2022-09-01T05:53:59.502Z,32.20
2022-09-01T05:56:29.892Z,32.30
2022-09-01T06:01:54.608Z,32.50
2022-09-01T06:04:24.139Z,32.50
2022-09-01T06:07:06.206Z,32.40
2022-09-01T06:09:39.552Z,32.30
2022-09-01T06:12:07.682Z,32.40
2022-09-01T06:14:37.100Z,32.30
2022-09-01T06:17:07.655Z,32.30
2022-09-01T06:19:37.555Z,32.30
2022-09-01T06:22:11.036Z,32.20
2022-09-01T06:24:43.618Z,32.10
2022-09-01T06:27:13.326Z,32.10
2022-09-01T06:29:42.793Z,32.10
2022-09-01T06:32:13.280Z,32.20
2022-09-01T06:34:50.791Z,32.20
2022-09-01T06:37:23.317Z,32.30
2022-09-01T06:39:51.884Z,32.30
2022-09-01T06:42:22.767Z,32.30
2022-09-01T06:44:53.224Z,32.40
2022-09-01T06:47:22.533Z,32.30
2022-09-01T06:49:53.555Z,32.30
2022-09-01T06:52:28.179Z,32.50
2022-09-01T06:54:56.486Z,32.70
2022-09-01T07:00:26.601Z,32.90
2022-09-01T07:02:58.562Z,32.90
2022-09-01T07:08:23.237Z,32.90
2022-09-01T07:14:15.235Z,33.00
2022-09-01T07:16:33.355Z,33.00
2022-09-01T07:19:03.690Z,33.00
2022-09-01T07:21:39.348Z,33.00
2022-09-01T07:24:11.534Z,33.10
2022-09-01T07:26:48.812Z,33.10
2022-09-01T07:29:17.832Z,33.10
2022-09-01T07:31:49.996Z,33.20
2022-09-01T07:39:56.529Z,33.30
2022-09-01T07:45:29.316Z,33.10
2022-09-01T07:48:08.548Z,33.20
2022-09-01T07:53:38.367Z,33.30
2022-09-01T07:56:10.063Z,33.10
2022-09-01T07:58:39.480Z,33.10
2022-09-01T08:01:08.419Z,33.00
2022-09-01T08:03:36.731Z,33.10
2022-09-01T08:06:07.900Z,33.10
2022-09-01T08:08:36.316Z,33.10
2022-09-01T08:11:05.980Z,33.10
2022-09-01T08:13:41.721Z,33.10
2022-09-01T08:16:18.456Z,33.10
2022-09-01T08:18:49.296Z,33.10
2022-09-01T08:21:18.581Z,33.10
2022-09-01T08:23:53.652Z,33.20
2022-09-01T08:26:22.423Z,33.20
2022-09-01T08:28:55.308Z,33.20
2022-09-01T08:31:24.881Z,33.20
2022-09-01T08:33:54.407Z,33.10
2022-09-01T08:36:26.060Z,33.10
2022-09-01T08:38:54.389Z,33.00
2022-09-01T08:41:46.810Z,33.00
2022-09-01T08:44:38.273Z,33.00
2022-09-01T08:47:13.690Z,32.90
2022-09-01T08:49:47.923Z,33.00
2022-09-01T08:52:36.668Z,33.00
2022-09-01T08:55:27.266Z,32.90
2022-09-01T08:57:59.752Z,32.90
2022-09-01T09:00:29.504Z,32.90
2022-09-01T09:03:17.594Z,32.90
2022-09-01T09:06:05.311Z,32.80
2022-09-01T09:08:52.858Z,32.80
2022-09-01T09:11:32.932Z,32.70
2022-09-01T09:14:22.982Z,32.70
2022-09-01T09:16:56.894Z,32.70
2022-09-01T09:19:40.058Z,32.50
2022-09-01T09:22:14.905Z,32.50
2022-09-01T09:24:56.417Z,32.40
2022-09-01T09:27:45.035Z,32.30
2022-09-01T09:30:15.150Z,32.30
2022-09-01T09:33:19.952Z,32.30
2022-09-01T09:35:39.237Z,32.20
2022-09-01T09:38:23.968Z,32.20
2022-09-01T09:41:17.018Z,32.10
2022-09-01T09:43:59.588Z,32.10
2022-09-01T09:46:36.702Z,32.00
2022-09-01T09:49:34.844Z,31.90
2022-09-01T09:52:16.629Z,31.90
2022-09-01T09:54:58.142Z,31.80
2022-09-01T09:57:27.101Z,31.80
2022-09-01T10:00:08.801Z,31.70
2022-09-01T10:02:39.740Z,31.70
2022-09-01T10:05:20.206Z,31.70
2022-09-01T10:07:48.329Z,31.60
2022-09-01T10:10:29.094Z,31.60
2022-09-01T10:12:58.673Z,31.60
2022-09-01T10:15:30.139Z,31.60
2022-09-01T10:21:02.062Z,31.50
2022-09-01T10:23:30.994Z,31.40
2022-09-01T10:26:12.464Z,31.40
2022-09-01T10:28:49.973Z,31.40
2022-09-01T10:31:19.886Z,31.40
2022-09-01T10:33:48.295Z,31.30
2022-09-01T10:36:33.766Z,31.20
2022-09-01T10:39:08.834Z,31.10
2022-09-01T10:41:53.282Z,30.90
2022-09-01T10:44:36.985Z,30.70
2022-09-01T10:47:14.533Z,30.60
2022-09-01T10:50:07.639Z,30.40
2022-09-01T10:52:57.546Z,30.20
2022-09-01T10:55:46.010Z,30.10
2022-09-01T11:01:47.942Z,29.90
2022-09-01T11:04:21.485Z,29.80
2022-09-01T11:07:14.667Z,29.70
2022-09-01T11:09:45.152Z,29.70
2022-09-01T11:12:32.483Z,29.70
2022-09-01T11:15:02.318Z,29.60
2022-09-01T11:17:33.379Z,29.60
2022-09-01T11:20:14.281Z,29.60
2022-09-01T11:22:44.727Z,29.60
2022-09-01T11:25:26.664Z,29.60
2022-09-01T11:28:26.070Z,29.70
2022-09-01T11:30:56.995Z,29.70
2022-09-01T11:33:37.007Z,29.70
2022-09-01T11:36:08.262Z,29.70
2022-09-01T11:38:48.207Z,29.70
2022-09-01T11:41:24.812Z,29.60
2022-09-01T11:43:55.111Z,29.60
2022-09-01T11:46:26.665Z,29.50
2022-09-01T11:48:55.039Z,29.50
2022-09-01T11:51:22.883Z,29.50
2022-09-01T11:53:51.213Z,29.50
2022-09-01T11:56:25.031Z,29.40
2022-09-01T11:58:52.980Z,29.40
2022-09-01T12:01:31.798Z,29.30
2022-09-01T12:04:17.964Z,29.30
2022-09-01T12:06:53.227Z,29.20
2022-09-01T12:09:20.993Z,29.20
2022-09-01T12:11:49.327Z,29.20
2022-09-01T12:14:21.560Z,29.10
2022-09-01T12:16:58.167Z,29.10
2022-09-01T12:19:27.329Z,29.10
2022-09-01T12:22:03.089Z,29.00
2022-09-01T12:24:34.876Z,29.00
2022-09-01T12:27:03.598Z,29.00
2022-09-01T12:29:32.477Z,28.90
2022-09-01T12:32:01.716Z,29.00
2022-09-01T12:34:39.205Z,29.00
2022-09-01T12:37:26.780Z,28.90
2022-09-01T12:39:57.697Z,28.90
2022-09-01T12:42:38.904Z,28.90
2022-09-01T12:45:10.169Z,28.90
2022-09-01T12:47:50.323Z,28.90
2022-09-01T12:50:36.550Z,28.90
2022-09-01T12:53:05.840Z,28.80
2022-09-01T12:55:50.788Z,28.70
2022-09-01T12:58:22.114Z,28.70
2022-09-01T13:01:16.360Z,28.70
2022-09-01T13:04:04.227Z,28.60
2022-09-01T13:06:33.419Z,28.60
2022-09-01T13:09:01.228Z,28.60
2022-09-01T13:12:05.746Z,28.60
2022-09-01T13:14:18.100Z,28.60
2022-09-01T13:16:46.295Z,28.60
2022-09-01T13:19:19.788Z,28.60
2022-09-01T13:21:55.050Z,28.70
2022-09-01T13:24:26.549Z,28.70
2022-09-01T13:29:47.744Z,28.70
2022-09-01T13:32:19.078Z,28.80
2022-09-01T13:34:50.613Z,28.80
2022-09-01T13:37:20.242Z,28.80
2022-09-01T13:39:48.549Z,28.80
2022-09-01T13:42:17.848Z,28.80
2022-09-01T13:44:48.307Z,28.80
2022-09-01T13:47:32.707Z,28.80
2022-09-01T13:50:11.069Z,28.90
2022-09-01T13:52:47.717Z,28.90
2022-09-01T13:55:26.496Z,28.90
2022-09-01T13:57:55.894Z,28.80
2022-09-01T14:00:25.572Z,28.80
2022-09-01T14:02:54.732Z,28.80
2022-09-01T14:05:33.157Z,28.80
2022-09-01T14:08:01.940Z,28.70
2022-09-01T14:10:32.145Z,28.70
2022-09-01T14:13:00.739Z,28.70
2022-09-01T14:15:28.609Z,28.80
2022-09-01T14:17:57.326Z,28.80
2022-09-01T14:20:27.834Z,28.70
2022-09-01T14:22:56.364Z,28.70
2022-09-01T14:25:24.290Z,28.70
2022-09-01T14:27:54.666Z,28.70
2022-09-01T14:30:31.226Z,28.70
2022-09-01T14:33:00.451Z,28.70
2022-09-01T14:35:28.222Z,28.70
2022-09-01T14:37:56.715Z,28.60
2022-09-01T14:40:25.468Z,28.60
2022-09-01T14:42:53.639Z,28.50
2022-09-01T14:45:23.426Z,28.50
2022-09-01T14:47:54.131Z,28.40
2022-09-01T14:50:23.394Z,28.40
2022-09-01T14:52:55.788Z,28.40
2022-09-01T14:55:24.855Z,28.40
2022-09-01T14:57:52.986Z,28.30
2022-09-01T15:00:20.873Z,28.30
2022-09-01T15:02:49.132Z,28.30
2022-09-01T15:05:16.937Z,28.30
2022-09-01T15:07:44.703Z,28.20
2022-09-01T15:10:15.714Z,28.20
2022-09-01T15:12:43.922Z,28.20
2022-09-01T15:15:11.951Z,28.20
2022-09-01T15:17:42.244Z,28.10
2022-09-01T15:20:24.557Z,28.10
2022-09-01T15:22:52.285Z,28.00
2022-09-01T15:25:19.979Z,28.10
2022-09-01T15:27:48.524Z,28.00
2022-09-01T15:30:17.286Z,28.00
2022-09-01T15:32:45.887Z,27.90
2022-09-01T15:35:14.736Z,27.90
2022-09-01T15:37:43.645Z,27.90
2022-09-01T15:40:11.563Z,27.90
2022-09-01T15:42:40.311Z,27.80
2022-09-01T15:45:09.549Z,27.80
2022-09-01T15:47:40.369Z,27.80
2022-09-01T15:50:11.975Z,27.80
2022-09-01T15:52:51.560Z,27.80
2022-09-01T15:55:26.967Z,27.80
2022-09-01T15:57:55.415Z,27.80
2022-09-01T16:00:24.283Z,27.80
2022-09-01T16:02:55.496Z,27.90
2022-09-01T16:05:25.447Z,27.90
2022-09-01T16:07:53.757Z,27.90
2022-09-01T16:10:22.369Z,27.90
2022-09-01T16:12:52.948Z,27.90
2022-09-01T16:15:22.733Z,27.90
2022-09-01T16:18:10.298Z,27.80
2022-09-01T16:20:50.223Z,27.90
2022-09-01T16:23:19.466Z,27.90
2022-09-01T16:25:47.649Z,27.80
2022-09-01T16:28:23.183Z,27.80
2022-09-01T16:30:53.205Z,27.90
2022-09-01T16:33:20.837Z,27.90
2022-09-01T16:36:01.123Z,27.90
2022-09-01T16:38:40.977Z,27.80
2022-09-01T16:41:18.693Z,27.80
2022-09-01T16:43:59.556Z,27.90
2022-09-01T16:46:35.846Z,27.90
2022-09-01T16:49:18.461Z,28.00
2022-09-01T16:51:59.124Z,28.00
2022-09-01T16:54:47.292Z,28.00
2022-09-01T16:57:31.978Z,28.00
2022-09-01T17:00:01.375Z,28.00
2022-09-01T17:02:49.692Z,28.00
2022-09-01T17:05:22.364Z,28.00
2022-09-01T17:07:51.837Z,28.00
2022-09-01T17:10:25.836Z,28.00
2022-09-01T17:12:56.317Z,28.00
2022-09-01T17:15:44.588Z,27.90
2022-09-01T17:18:24.551Z,27.90
2022-09-01T17:20:58.415Z,27.90
2022-09-01T17:23:31.776Z,27.90
2022-09-01T17:26:02.717Z,27.80
2022-09-01T17:28:39.303Z,27.80
2022-09-01T17:31:14.750Z,27.80
2022-09-01T17:34:02.887Z,27.80
2022-09-01T17:36:46.814Z,27.80
2022-09-01T17:39:23.983Z,27.80
2022-09-01T17:42:01.096Z,27.80
2022-09-01T17:44:48.438Z,27.80
2022-09-01T17:47:24.515Z,27.80
2022-09-01T17:50:11.757Z,27.80
2022-09-01T17:52:45.257Z,27.80
2022-09-01T17:55:39.965Z,27.80
2022-09-01T17:58:19.903Z,27.80
2022-09-01T18:00:53.895Z,27.80
2022-09-01T18:03:34.907Z,27.80
2022-09-01T18:06:09.365Z,27.80
2022-09-01T18:08:44.540Z,27.80
2022-09-01T18:11:13.970Z,27.70
2022-09-01T18:13:54.206Z,27.70
2022-09-01T18:16:25.580Z,27.70
2022-09-01T18:18:53.940Z,27.70
2022-09-01T18:21:25.242Z,27.60
2022-09-01T18:23:57.427Z,27.60
2022-09-01T18:26:33.404Z,27.60
2022-09-01T18:29:01.559Z,27.60
2022-09-01T18:31:46.342Z,27.60
2022-09-01T18:34:34.604Z,27.70
2022-09-01T18:37:14.495Z,27.70
2022-09-01T18:39:49.726Z,27.70
2022-09-01T18:42:26.953Z,27.70
2022-09-01T18:45:05.573Z,27.70
2022-09-01T18:47:35.278Z,27.70
2022-09-01T18:50:23.672Z,27.70
2022-09-01T18:53:09.546Z,27.70
2022-09-01T18:55:49.444Z,27.70
2022-09-01T18:58:29.649Z,27.80
2022-09-01T19:01:00.020Z,27.80
2022-09-01T19:03:34.666Z,27.80
2022-09-01T19:06:14.593Z,27.80
2022-09-01T19:09:01.951Z,27.80
2022-09-01T19:11:37.588Z,27.80
2022-09-01T19:14:18.597Z,27.80
2022-09-01T19:16:58.538Z,27.80
2022-09-01T19:19:35.890Z,27.90
2022-09-01T19:22:03.694Z,27.90
2022-09-01T19:24:51.911Z,27.80
2022-09-01T19:27:24.585Z,27.90
2022-09-01T19:29:56.494Z,27.80
2022-09-01T19:32:26.467Z,27.80
2022-09-01T19:34:57.905Z,27.80
2022-09-01T19:37:26.571Z,27.80
2022-09-01T19:39:55.232Z,27.80
2022-09-01T19:42:41.376Z,27.80
2022-09-01T19:45:22.664Z,27.80
2022-09-01T19:48:11.247Z,27.70
2022-09-01T19:50:42.263Z,27.70
2022-09-01T19:53:22.232Z,27.70
2022-09-01T19:55:55.606Z,27.70
2022-09-01T19:58:27.048Z,27.70
2022-09-01T20:00:59.370Z,27.70
2022-09-01T20:03:46.763Z,27.70
2022-09-01T20:09:06.536Z,27.60
2022-09-01T20:11:42.636Z,27.60
2022-09-01T20:14:21.134Z,27.60
2022-09-01T20:16:51.756Z,27.60
2022-09-01T20:19:38.988Z,27.60
2022-09-01T20:22:21.981Z,27.50
2022-09-01T20:24:50.118Z,27.60
2022-09-01T20:27:39.525Z,27.60
2022-09-01T20:30:15.538Z,27.60
2022-09-01T20:32:55.515Z,27.50
2022-09-01T20:35:27.580Z,27.50
2022-09-01T20:37:59.769Z,27.50
2022-09-01T20:40:31.320Z,27.50
2022-09-01T20:43:20.745Z,27.40
2022-09-01T20:45:49.084Z,27.40
2022-09-01T20:48:23.907Z,27.40
2022-09-01T20:50:59.078Z,27.40
2022-09-01T20:53:35.519Z,27.40
2022-09-01T20:56:15.473Z,27.40
2022-09-01T20:58:45.951Z,27.30
2022-09-01T21:01:33.680Z,27.30
2022-09-01T21:04:13.583Z,27.30
2022-09-01T21:07:00.819Z,27.30
2022-09-01T21:09:39.140Z,27.30
2022-09-01T21:12:27.334Z,27.20
2022-09-01T21:15:14.662Z,27.20
2022-09-01T21:18:03.574Z,27.20
2022-09-01T21:20:51.277Z,27.20
2022-09-01T21:23:20.634Z,27.20
2022-09-01T21:25:49.973Z,27.20
2022-09-01T21:28:21.178Z,27.20
2022-09-01T21:30:54.660Z,27.20
2022-09-01T21:33:23.469Z,27.20
2022-09-01T21:35:53.703Z,27.20
2022-09-01T21:38:21.461Z,27.20
2022-09-01T21:40:49.672Z,27.20
2022-09-01T21:43:19.411Z,27.20
2022-09-01T21:45:47.312Z,27.20
2022-09-01T21:48:15.219Z,27.20
2022-09-01T21:50:43.243Z,27.20
2022-09-01T21:53:11.817Z,27.20
2022-09-01T21:55:39.449Z,27.20
2022-09-01T21:58:08.093Z,27.20
2022-09-01T22:00:39.715Z,27.10
2022-09-01T22:03:07.904Z,27.10
2022-09-01T22:05:41.796Z,27.10
2022-09-01T22:08:12.567Z,27.10
2022-09-01T22:10:45.162Z,27.10
2022-09-01T22:13:13.723Z,27.10
2022-09-01T22:15:42.592Z,27.10
2022-09-01T22:18:10.363Z,27.10
2022-09-01T22:20:38.333Z,27.10
2022-09-01T22:23:06.436Z,27.10
2022-09-01T22:25:34.741Z,27.10
2022-09-01T22:28:06.787Z,27.10
2022-09-01T22:30:34.955Z,27.10
2022-09-01T22:33:04.136Z,27.00
2022-09-01T22:35:31.885Z,27.10
2022-09-01T22:37:59.623Z,27.10
2022-09-01T22:40:27.631Z,27.10
2022-09-01T22:42:55.323Z,27.10
2022-09-01T22:45:23.033Z,27.10
2022-09-01T22:47:50.826Z,27.10
2022-09-01T22:50:18.567Z,27.00
2022-09-01T22:52:47.096Z,27.00
2022-09-01T22:55:14.779Z,27.00
2022-09-01T22:57:42.531Z,27.00
2022-09-01T23:00:11.312Z,27.00
2022-09-01T23:02:39.134Z,27.00
2022-09-01T23:05:07.149Z,27.00
2022-09-01T23:07:35.359Z,27.00
2022-09-01T23:10:08.774Z,27.00
2022-09-01T23:12:36.467Z,27.00
2022-09-01T23:15:07.838Z,27.00
2022-09-01T23:17:38.312Z,27.00
2022-09-01T23:20:08.795Z,27.10
2022-09-01T23:22:36.813Z,27.10
2022-09-01T23:25:05.610Z,27.10
2022-09-01T23:27:33.935Z,27.20
2022-09-01T23:30:02.178Z,27.10
2022-09-01T23:32:31.021Z,27.20
2022-09-01T23:35:00.530Z,27.20
2022-09-01T23:37:29.600Z,27.20
2022-09-01T23:39:58.248Z,27.20
2022-09-01T23:42:27.139Z,27.30
2022-09-01T23:44:55.543Z,27.30
2022-09-01T23:47:23.888Z,27.30
2022-09-01T23:49:53.260Z,27.40
2022-09-01T23:52:21.565Z,27.40
2022-09-01T23:54:49.869Z,27.40
2022-09-01T23:57:18.148Z,27.40
2022-09-01T23:59:46.456Z,27.40
